Airfield :
LOGIN :

Register | Disclaimer

   EN    FR    IT 

 










Legend :    VFR   Marginal VFR   IFR   Intensive IFR   Very Intensive IFR
Visi :
Ceiling :
>= 8 km
>= 3000ft
5 to 8 km
1000 to 3000 ft
1500m to 5 km
500 to 1000 ft
800 to 1500m
200 to 500 ft
< 800m
< 200 ft
Symbols :   Thunderstorms  Fog  Heavy snow  Heavy precipitations  Wind > 20 kt
SIGMETs :     Misc.  Thunderstorms  Icing  Turbulence  Mountain Waves  Volcanic Ashes






- Airport Elevation : 2356 ft


LZTT - Poprad Tatry

CURRENT METAR :
  • 190430Z VRB01KT 9999 FEW040 SCT060 14/13 Q1023

EXPIRED METARs :
  • 190400Z 28002KT 9999 SCT056 13/13 Q1023
  • 190330Z 27003KT 9999 FEW057 13/12 Q1023
  • 190300Z 27003KT 240V300 9999 FEW057 13/12 Q1023
  • 190230Z 28004KT 9999 SCT057 13/13 Q1023
  • 190200Z VRB02KT 9999 FEW056 13/12 Q1023
  • 190130Z 34003KT 300V010 9999 FEW050 13/12 Q1023
  • 190100Z 24003KT 9999 FEW050 13/13 Q1023
  • 190030Z 30004KT 270V330 9999 FEW050 14/13 Q1023
  • 190000Z 28003KT 9999 FEW050 14/13 Q1023

TAF TAF LZTT
Valid from the 19 at 00:00 until the 20 at 00:00 UTC


182315Z 1900/2000 VRB02KT 9999 FEW045
BECMG 1906/1908 05007KT
PROB30
TEMPO 1912/1916 05017KT SHRA FEW045TCU
BECMG 1920/1922 VRB02KT



MET'MAP, your aeronautical weather chart ! - Copyright ORBIFLY December 2007 - Disclaimer

ORBIFLY MET'MAP TEAM :

Programming & Development : Alexandra Zaïnal
Original concept : Baudouin d'Aumeries
Technical & hardware support : Manuel Goepfert
Assistance : Marc-Olivier Méhu




SOURCES & CREDITS :

   NOAA